Time,TemperatureF,DewpointF,PressureIn,WindDirection,WindDirectionDegrees,WindSpeedMPH,WindSpeedGustMPH,Humidity,HourlyPrecipIn,Conditions,Clouds,dailyrainin,SolarRadiationWatts/m^2,SoftwareType,DateUTC
2013-06-29 00:11:00,71.0,65.0,-100.00,ENE,71,1.0,3.0,81,0.00,,,1.00,1.000000,,2013-06-29 05:11:00,
2013-06-29 00:21:00,71.0,65.0,-100.00,ENE,71,1.0,3.0,81,0.00,,,1.00,1.000000,,2013-06-29 05:21:00,
2013-06-29 00:31:00,71.0,65.0,-100.00,ENE,71,1.0,3.0,81,0.00,,,1.00,1.000000,,2013-06-29 05:31:00,
2013-06-29 00:41:00,71.0,65.0,-100.00,ENE,71,1.0,3.0,81,0.00,,,1.00,1.000000,,2013-06-29 05:41:00,
2013-06-29 00:51:00,71.0,65.0,-100.00,ENE,71,1.0,3.0,81,0.00,,,1.00,1.000000,,2013-06-29 05:51:00,
2013-06-29 00:53:00,70.0,64.0,-100.00,East,94,2.0,4.0,82,0.00,,,1.00,1.000000,,2013-06-29 05:53:00,
2013-06-29 01:12:00,70.0,64.0,-100.00,East,94,2.0,4.0,82,0.00,,,1.00,1.000000,,2013-06-29 06:12:00,
2013-06-29 01:22:00,70.0,64.0,-100.00,East,94,2.0,4.0,82,0.00,,,1.00,1.000000,,2013-06-29 06:22:00,
2013-06-29 01:33:00,70.0,64.0,-100.00,East,94,2.0,4.0,82,0.00,,,1.00,1.000000,,2013-06-29 06:33:00,
2013-06-29 01:43:00,70.0,64.0,-100.00,East,94,2.0,4.0,82,0.00,,,1.00,1.000000,,2013-06-29 06:43:00,
2013-06-29 01:53:00,70.0,61.0,-100.00,SSE,150,3.0,6.0,73,0.00,,,1.00,1.000000,,2013-06-29 06:53:00,
2013-06-29 02:12:00,70.0,61.0,-100.00,SSE,150,3.0,6.0,73,0.00,,,1.00,1.000000,,2013-06-29 07:12:00,
2013-06-29 02:22:00,70.0,61.0,-100.00,SSE,150,3.0,6.0,73,0.00,,,1.00,1.000000,,2013-06-29 07:22:00,
2013-06-29 02:33:00,70.0,61.0,-100.00,SSE,150,3.0,6.0,73,0.00,,,1.00,1.000000,,2013-06-29 07:33:00,
2013-06-29 02:43:00,70.0,61.0,-100.00,SSE,150,3.0,6.0,73,0.00,,,1.00,1.000000,,2013-06-29 07:43:00,
2013-06-29 03:22:00,70.0,62.0,-100.00,SSE,156,4.0,7.0,75,0.00,,,1.00,1.000000,,2013-06-29 08:22:00,
2013-06-29 03:33:00,70.0,62.0,-100.00,SSE,156,4.0,7.0,75,0.00,,,1.00,1.000000,,2013-06-29 08:33:00,
2013-06-29 03:43:00,70.0,62.0,-100.00,SSE,156,4.0,7.0,75,0.00,,,1.00,1.000000,,2013-06-29 08:43:00,
2013-06-29 03:52:00,70.0,62.0,-100.00,SSE,156,4.0,7.0,75,0.00,,,1.00,1.000000,,2013-06-29 08:52:00,
2013-06-29 03:53:00,69.0,61.0,-100.00,SSE,167,5.0,8.0,75,0.00,,,0.64,1.000000,,2013-06-29 08:53:00,
2013-06-29 04:12:00,69.0,61.0,-100.00,SSE,167,5.0,8.0,75,0.00,,,0.64,1.000000,,2013-06-29 09:12:00,
2013-06-29 04:22:00,69.0,61.0,-100.00,SSE,167,5.0,8.0,75,0.00,,,0.64,1.000000,,2013-06-29 09:22:00,
2013-06-29 04:33:00,69.0,61.0,-100.00,SSE,167,5.0,8.0,75,0.00,,,0.64,1.000000,,2013-06-29 09:33:00,
2013-06-29 04:42:00,69.0,61.0,-100.00,SSE,167,5.0,8.0,75,0.00,,,0.64,1.000000,,2013-06-29 09:42:00,
2013-06-29 05:22:00,68.0,60.0,-100.00,SSE,166,5.0,8.0,75,0.00,,,0.10,1.000000,,2013-06-29 10:22:00,
2013-06-29 05:33:00,68.0,60.0,-100.00,SSE,166,5.0,8.0,75,0.00,,,0.10,1.000000,,2013-06-29 10:33:00,
2013-06-29 05:43:00,68.0,60.0,-100.00,SSE,166,5.0,8.0,75,0.00,,,0.10,1.000000,,2013-06-29 10:43:00,
2013-06-29 05:52:00,68.0,60.0,-100.00,SSE,166,5.0,8.0,75,0.00,,,0.10,1.000000,,2013-06-29 10:52:00,
2013-06-29 05:53:00,67.0,60.0,-100.00,South,179,5.0,10.0,77,0.00,,,0.03,2.000000,,2013-06-29 10:53:00,
2013-06-29 06:11:00,67.0,60.0,-100.00,South,179,5.0,10.0,77,0.00,,,0.03,2.000000,,2013-06-29 11:11:00,
2013-06-29 06:23:00,67.0,60.0,-100.00,South,179,5.0,10.0,77,0.00,,,0.03,2.000000,,2013-06-29 11:23:00,
2013-06-29 06:33:00,67.0,60.0,-100.00,South,179,5.0,10.0,77,0.00,,,0.03,2.000000,,2013-06-29 11:33:00,
2013-06-29 06:43:00,67.0,60.0,-100.00,South,179,5.0,10.0,77,0.00,,,0.03,2.000000,,2013-06-29 11:43:00,
2013-06-29 06:53:00,69.0,60.0,-100.00,South,183,7.0,11.0,72,0.00,,,0.00,45.000000,,2013-06-29 11:53:00,
2013-06-29 07:12:00,69.0,60.0,-100.00,South,183,7.0,11.0,72,0.00,,,0.00,45.000000,,2013-06-29 12:12:00,
2013-06-29 07:22:00,69.0,60.0,-100.00,South,183,7.0,11.0,72,0.00,,,0.00,45.000000,,2013-06-29 12:22:00,
2013-06-29 07:34:00,69.0,60.0,-100.00,South,183,7.0,11.0,72,0.00,,,0.00,45.000000,,2013-06-29 12:34:00,
2013-06-29 07:43:00,69.0,60.0,-100.00,South,183,7.0,11.0,72,0.00,,,0.00,45.000000,,2013-06-29 12:43:00,
2013-06-29 07:53:00,73.0,61.0,-100.00,South,184,7.0,13.0,67,0.00,,,0.00,247.000000,,2013-06-29 12:53:00,
2013-06-29 08:11:00,73.0,61.0,-100.00,South,184,7.0,13.0,67,0.00,,,0.00,247.000000,,2013-06-29 13:11:00,
2013-06-29 08:23:00,73.0,61.0,-100.00,South,184,7.0,13.0,67,0.00,,,0.00,247.000000,,2013-06-29 13:23:00,
2013-06-29 08:34:00,73.0,61.0,-100.00,South,184,7.0,13.0,67,0.00,,,0.00,247.000000,,2013-06-29 13:34:00,
2013-06-29 08:43:00,73.0,61.0,-100.00,South,184,7.0,13.0,67,0.00,,,0.00,247.000000,,2013-06-29 13:43:00,
2013-06-29 08:53:00,76.0,62.0,-100.00,South,177,7.0,14.0,62,0.00,,,0.00,457.000000,,2013-06-29 13:53:00,
2013-06-29 09:12:00,76.0,62.0,-100.00,South,177,7.0,14.0,62,0.00,,,0.00,457.000000,,2013-06-29 14:12:00,
2013-06-29 09:23:00,76.0,62.0,-100.00,South,177,7.0,14.0,62,0.00,,,0.00,457.000000,,2013-06-29 14:23:00,
2013-06-29 09:34:00,76.0,62.0,-100.00,South,177,7.0,14.0,62,0.00,,,0.00,457.000000,,2013-06-29 14:34:00,
2013-06-29 09:44:00,76.0,62.0,-100.00,South,177,7.0,14.0,62,0.00,,,0.00,457.000000,,2013-06-29 14:44:00,
2013-06-29 09:53:00,79.0,63.0,-100.00,South,187,7.0,14.0,58,0.00,,,0.00,654.000000,,2013-06-29 14:53:00,
2013-06-29 10:22:00,79.0,63.0,-100.00,South,187,7.0,14.0,58,0.00,,,0.00,654.000000,,2013-06-29 15:22:00,
2013-06-29 10:33:00,79.0,63.0,-100.00,South,187,7.0,14.0,58,0.00,,,0.00,654.000000,,2013-06-29 15:33:00,
2013-06-29 10:42:00,79.0,63.0,-100.00,South,187,7.0,14.0,58,0.00,,,0.00,654.000000,,2013-06-29 15:42:00,
2013-06-29 10:53:00,81.0,62.0,-100.00,South,190,11.0,18.0,52,0.00,,,0.00,830.000000,,2013-06-29 15:53:00,
2013-06-29 11:12:00,81.0,62.0,-100.00,South,190,11.0,18.0,52,0.00,,,0.00,830.000000,,2013-06-29 16:12:00,
2013-06-29 11:22:00,81.0,62.0,-100.00,South,190,11.0,18.0,52,0.00,,,0.00,830.000000,,2013-06-29 16:22:00,
2013-06-29 11:33:00,81.0,62.0,-100.00,South,190,11.0,18.0,52,0.00,,,0.00,830.000000,,2013-06-29 16:33:00,
2013-06-29 11:43:00,81.0,62.0,-100.00,South,190,11.0,18.0,52,0.00,,,0.00,830.000000,,2013-06-29 16:43:00,
2013-06-29 12:12:00,83.0,59.0,-100.00,South,191,12.0,21.0,44,0.00,,,-99.99,960.000000,,2013-06-29 17:12:00,
2013-06-29 12:23:00,83.0,59.0,-100.00,South,191,12.0,21.0,44,0.00,,,-99.99,960.000000,,2013-06-29 17:23:00,
2013-06-29 12:34:00,83.0,59.0,-100.00,South,191,12.0,21.0,44,0.00,,,-99.99,960.000000,,2013-06-29 17:34:00,
2013-06-29 12:42:00,83.0,59.0,-100.00,South,191,12.0,21.0,44,0.00,,,-99.99,960.000000,,2013-06-29 17:42:00,
2013-06-29 12:52:00,83.0,59.0,-100.00,South,191,12.0,21.0,44,0.00,,,-99.99,960.000000,,2013-06-29 17:52:00,
2013-06-29 13:12:00,84.0,58.0,-100.00,South,179,11.0,21.0,42,0.00,,,-99.99,950.000000,,2013-06-29 18:12:00,
2013-06-29 13:22:00,84.0,58.0,-100.00,South,179,11.0,21.0,42,0.00,,,-99.99,950.000000,,2013-06-29 18:22:00,
2013-06-29 13:34:00,84.0,58.0,-100.00,South,179,11.0,21.0,42,0.00,,,-99.99,950.000000,,2013-06-29 18:34:00,
2013-06-29 13:43:00,84.0,58.0,-100.00,South,179,11.0,21.0,42,0.00,,,-99.99,950.000000,,2013-06-29 18:43:00,
2013-06-29 13:52:00,84.0,58.0,-100.00,South,179,11.0,21.0,42,0.00,,,-99.99,950.000000,,2013-06-29 18:52:00,
2013-06-29 13:53:00,85.0,59.0,-100.00,SSW,198,13.0,22.0,42,0.00,,,0.00,1045.000000,,2013-06-29 18:53:00,
2013-06-29 14:22:00,85.0,59.0,-100.00,SSW,198,13.0,22.0,42,0.00,,,0.00,1045.000000,,2013-06-29 19:22:00,
2013-06-29 14:34:00,85.0,59.0,-100.00,SSW,198,13.0,22.0,42,0.00,,,0.00,1045.000000,,2013-06-29 19:34:00,
2013-06-29 14:43:00,85.0,59.0,-100.00,SSW,198,13.0,22.0,42,0.00,,,0.00,1045.000000,,2013-06-29 19:43:00,
2013-06-29 15:12:00,85.0,58.0,-100.00,SSW,195,12.0,24.0,40,0.00,,,0.00,1011.000000,,2013-06-29 20:12:00,
2013-06-29 15:23:00,85.0,58.0,-100.00,SSW,195,12.0,24.0,40,0.00,,,0.00,1011.000000,,2013-06-29 20:23:00,
2013-06-29 15:33:00,85.0,58.0,-100.00,SSW,195,12.0,24.0,40,0.00,,,0.00,1011.000000,,2013-06-29 20:33:00,
2013-06-29 15:43:00,85.0,58.0,-100.00,SSW,195,12.0,24.0,40,0.00,,,0.00,1011.000000,,2013-06-29 20:43:00,
2013-06-29 15:52:00,85.0,58.0,-100.00,SSW,195,12.0,24.0,40,0.00,,,0.00,1011.000000,,2013-06-29 20:52:00,
2013-06-29 16:11:00,85.0,58.0,-100.00,SSW,201,13.0,21.0,40,0.00,,,0.00,904.000000,,2013-06-29 21:11:00,
2013-06-29 16:22:00,85.0,58.0,-100.00,SSW,201,13.0,21.0,40,0.00,,,0.00,904.000000,,2013-06-29 21:22:00,
2013-06-29 16:32:00,85.0,58.0,-100.00,SSW,201,13.0,21.0,40,0.00,,,0.00,904.000000,,2013-06-29 21:32:00,
2013-06-29 16:42:00,85.0,58.0,-100.00,SSW,201,13.0,21.0,40,0.00,,,0.00,904.000000,,2013-06-29 21:42:00,
2013-06-29 16:52:00,85.0,58.0,-100.00,SSW,201,13.0,21.0,40,0.00,,,0.00,904.000000,,2013-06-29 21:52:00,
2013-06-29 16:53:00,85.0,56.0,-100.00,SSW,199,13.0,19.0,37,0.00,,,0.00,733.000000,,2013-06-29 21:53:00,
2013-06-29 17:11:00,85.0,56.0,-100.00,SSW,199,13.0,19.0,37,0.00,,,0.00,733.000000,,2013-06-29 22:11:00,
2013-06-29 17:21:00,85.0,56.0,-100.00,SSW,199,13.0,19.0,37,0.00,,,0.00,733.000000,,2013-06-29 22:21:00,
2013-06-29 17:33:00,85.0,56.0,-100.00,SSW,199,13.0,19.0,37,0.00,,,0.00,733.000000,,2013-06-29 22:33:00,
2013-06-29 17:43:00,85.0,56.0,-100.00,SSW,199,13.0,19.0,37,0.00,,,0.00,733.000000,,2013-06-29 22:43:00,
2013-06-29 18:12:00,85.0,58.0,-100.00,South,171,7.0,19.0,40,0.00,,,0.00,546.000000,,2013-06-29 23:12:00,
2013-06-29 18:23:00,85.0,58.0,-100.00,South,171,7.0,19.0,40,0.00,,,0.00,546.000000,,2013-06-29 23:23:00,
2013-06-29 18:34:00,85.0,58.0,-100.00,South,171,7.0,19.0,40,0.00,,,0.00,546.000000,,2013-06-29 23:34:00,
2013-06-29 18:43:00,85.0,58.0,-100.00,South,171,7.0,19.0,40,0.00,,,0.00,546.000000,,2013-06-29 23:43:00,
2013-06-29 18:52:00,85.0,58.0,-100.00,South,171,7.0,19.0,40,0.00,,,0.00,546.000000,,2013-06-29 23:52:00,
2013-06-29 19:12:00,84.0,60.0,-100.00,South,187,5.0,18.0,44,0.00,,,0.00,290.000000,,2013-06-30 00:12:00,
2013-06-29 19:22:00,84.0,60.0,-100.00,South,187,5.0,18.0,44,0.00,,,0.00,290.000000,,2013-06-30 00:22:00,
2013-06-29 19:33:00,84.0,60.0,-100.00,South,187,5.0,18.0,44,0.00,,,0.00,290.000000,,2013-06-30 00:33:00,
2013-06-29 19:43:00,84.0,60.0,-100.00,South,187,5.0,18.0,44,0.00,,,0.00,290.000000,,2013-06-30 00:43:00,
2013-06-29 19:52:00,84.0,60.0,-100.00,South,187,5.0,18.0,44,0.00,,,0.00,290.000000,,2013-06-30 00:52:00,
2013-06-29 19:53:00,76.0,59.0,-100.00,WSW,257,9.0,15.0,56,0.00,,,0.00,105.000000,,2013-06-30 00:53:00,
2013-06-29 20:11:00,76.0,59.0,-100.00,WSW,257,9.0,15.0,56,0.00,,,0.00,105.000000,,2013-06-30 01:11:00,
2013-06-29 20:22:00,76.0,59.0,-100.00,WSW,257,9.0,15.0,56,0.00,,,0.00,105.000000,,2013-06-30 01:22:00,
2013-06-29 20:33:00,76.0,59.0,-100.00,WSW,257,9.0,15.0,56,0.00,,,0.00,105.000000,,2013-06-30 01:33:00,
2013-06-29 20:44:00,76.0,59.0,-100.00,WSW,257,9.0,15.0,56,0.00,,,0.00,105.000000,,2013-06-30 01:44:00,
2013-06-29 20:53:00,69.0,60.0,-100.00,WNW,296,2.0,19.0,74,0.00,,,0.00,7.000000,,2013-06-30 01:53:00,
2013-06-29 21:11:00,69.0,60.0,-100.00,WNW,296,2.0,19.0,74,0.00,,,0.00,7.000000,,2013-06-30 02:11:00,
2013-06-29 21:23:00,69.0,60.0,-100.00,WNW,296,2.0,19.0,74,0.00,,,0.00,7.000000,,2013-06-30 02:23:00,
2013-06-29 21:34:00,69.0,60.0,-100.00,WNW,296,2.0,19.0,74,0.00,,,0.00,7.000000,,2013-06-30 02:34:00,
2013-06-29 21:43:00,69.0,60.0,-100.00,WNW,296,2.0,19.0,74,0.00,,,0.00,7.000000,,2013-06-30 02:43:00,
2013-06-29 21:53:00,68.0,62.0,-100.00,South,176,5.0,17.0,81,0.00,,,0.00,1.000000,,2013-06-30 02:53:00,
2013-06-29 22:12:00,68.0,62.0,-100.00,South,176,5.0,17.0,81,0.00,,,0.00,1.000000,,2013-06-30 03:12:00,
2013-06-29 22:23:00,68.0,62.0,-100.00,South,176,5.0,17.0,81,0.00,,,0.00,1.000000,,2013-06-30 03:23:00,
2013-06-29 22:33:00,68.0,62.0,-100.00,South,176,5.0,17.0,81,0.00,,,0.00,1.000000,,2013-06-30 03:33:00,
2013-06-29 22:43:00,68.0,62.0,-100.00,South,176,5.0,17.0,81,0.00,,,0.00,1.000000,,2013-06-30 03:43:00,
2013-06-29 22:53:00,66.0,62.0,-100.00,South,184,4.0,8.0,88,0.00,,,0.00,1.000000,,2013-06-30 03:53:00,
2013-06-29 23:12:00,66.0,62.0,-100.00,South,184,4.0,8.0,88,0.00,,,0.00,1.000000,,2013-06-30 04:12:00,
2013-06-29 23:22:00,66.0,62.0,-100.00,South,184,4.0,8.0,88,0.00,,,0.00,1.000000,,2013-06-30 04:22:00,
2013-06-29 23:33:00,66.0,62.0,-100.00,South,184,4.0,8.0,88,0.00,,,0.00,1.000000,,2013-06-30 04:33:00,
2013-06-29 23:43:00,66.0,62.0,-100.00,South,184,4.0,8.0,88,0.00,,,0.00,1.000000,,2013-06-30 04:43:00,
2013-06-29 23:53:00,65.0,63.0,-100.00,SSE,163,2.0,8.0,92,0.00,,,0.00,1.000000,,2013-06-30 04:53:00,